Terminal Aerodrome Forecast
Issued by NWS Jacksonville, FL

Home | Current Version | Previous Version | Text Only | Print | Product List | Glossary On
Versions: 1 2 3 4 5 6 7 8 9 10 11 12 13 14 15 16 17 18 19 20
000
FTUS42 KJAX 232300
TAFSSI
TAF
KSSI 232320Z 2400/2424 04012KT P6SM VCSH SCT025 BKN045
      TEMPO 2400/2401 VRB10G20KT 4SM SHRA BKN020
     FM240200 02007KT P6SM SCT025 BKN040
      TEMPO 2402/2406 BKN020
     FM240600 03008KT P6SM BKN010 OVC040
     FM241700 02010KT P6SM SCT015 BKN025=

USA.gov is the U.S. government's official web portal to all federal, state and local government web resources and services.